createdAt,value
2022-08-25T00:00:29.533Z,7.40
2022-08-25T00:02:57.841Z,7.27
2022-08-25T00:05:29.354Z,7.37
2022-08-25T00:08:00.230Z,7.47
2022-08-25T00:10:28.725Z,6.93
2022-08-25T00:12:58.042Z,7.23
2022-08-25T00:15:26.681Z,7.83
2022-08-25T00:17:54.795Z,7.87
2022-08-25T00:20:23.470Z,7.13
2022-08-25T00:22:51.395Z,7.70
2022-08-25T00:25:20.250Z,7.90
2022-08-25T00:27:48.687Z,8.23
2022-08-25T00:30:19.458Z,7.60
2022-08-25T00:32:52.535Z,7.43
2022-08-25T00:35:24.955Z,7.57
2022-08-25T00:37:52.858Z,7.67
2022-08-25T00:40:20.993Z,7.50
2022-08-25T00:42:49.030Z,8.50
2022-08-25T00:45:18.875Z,7.80
2022-08-25T00:47:46.883Z,8.10
2022-08-25T00:50:15.278Z,8.20
2022-08-25T00:52:46.163Z,8.23
2022-08-25T00:55:19.423Z,8.93
2022-08-25T00:57:55.410Z,8.70
2022-08-25T01:00:28.609Z,7.50
2022-08-25T01:02:57.931Z,8.23
2022-08-25T01:05:28.086Z,8.37
2022-08-25T01:07:58.624Z,9.10
2022-08-25T01:10:28.806Z,8.20
2022-08-25T01:13:16.555Z,8.80
2022-08-25T01:15:46.454Z,8.57
2022-08-25T01:18:15.349Z,9.20
2022-08-25T01:20:43.613Z,8.67
2022-08-25T01:23:12.884Z,8.43
2022-08-25T01:25:49.525Z,9.40
2022-08-25T01:28:18.218Z,9.07
2022-08-25T01:30:46.444Z,9.50
2022-08-25T01:33:14.650Z,8.93
2022-08-25T01:35:42.599Z,9.27
2022-08-25T01:38:12.401Z,8.63
2022-08-25T01:40:40.955Z,8.33
2022-08-25T01:43:17.396Z,8.77
2022-08-25T01:45:48.242Z,9.13
2022-08-25T01:48:17.597Z,8.47
2022-08-25T01:50:45.621Z,9.70
2022-08-25T01:53:20.294Z,9.03
2022-08-25T01:55:55.858Z,8.77
2022-08-25T01:58:26.392Z,8.87
2022-08-25T02:00:57.027Z,9.33
2022-08-25T02:03:26.079Z,9.00
2022-08-25T02:05:55.078Z,9.20
2022-08-25T02:08:25.094Z,10.57
2022-08-25T02:10:53.947Z,9.87
2022-08-25T02:13:26.956Z,14.17
2022-08-25T02:16:02.257Z,9.50
2022-08-25T02:18:30.239Z,10.50
2022-08-25T02:20:58.169Z,9.40
2022-08-25T02:23:28.230Z,9.63
2022-08-25T02:25:57.233Z,9.60
2022-08-25T02:28:25.613Z,9.70
2022-08-25T02:30:58.561Z,10.03
2022-08-25T02:33:29.550Z,9.80
2022-08-25T02:35:59.555Z,10.57
2022-08-25T02:38:29.797Z,9.20
2022-08-25T02:40:58.554Z,10.03
2022-08-25T02:43:27.058Z,9.23
2022-08-25T02:45:55.662Z,10.80
2022-08-25T02:48:24.461Z,10.37
2022-08-25T02:50:53.611Z,9.87
2022-08-25T02:53:22.453Z,10.50
2022-08-25T02:55:51.661Z,10.50
2022-08-25T02:58:19.542Z,11.03
2022-08-25T03:00:47.842Z,10.70
2022-08-25T03:03:16.732Z,10.30
2022-08-25T03:05:44.940Z,9.73
2022-08-25T03:08:13.883Z,10.97
2022-08-25T03:10:41.841Z,11.30
2022-08-25T03:13:11.396Z,10.83
2022-08-25T03:15:39.385Z,10.00
2022-08-25T03:18:08.629Z,10.73
2022-08-25T03:20:37.127Z,10.60
2022-08-25T03:23:06.128Z,11.00
2022-08-25T03:25:51.878Z,11.57
2022-08-25T03:28:21.538Z,10.97
2022-08-25T03:31:00.419Z,11.47
2022-08-25T03:33:28.723Z,10.33
2022-08-25T03:35:57.135Z,10.33
2022-08-25T03:38:25.541Z,9.93
2022-08-25T03:40:54.194Z,10.33
2022-08-25T03:43:23.702Z,10.43
2022-08-25T03:45:52.035Z,11.07
2022-08-25T03:48:19.966Z,11.60
2022-08-25T03:50:50.769Z,11.77
2022-08-25T03:53:20.537Z,10.87
2022-08-25T03:55:48.698Z,12.37
2022-08-25T03:58:18.099Z,12.90
2022-08-25T04:00:47.380Z,12.40
2022-08-25T04:03:15.306Z,13.47
2022-08-25T04:05:43.234Z,10.80
2022-08-25T04:08:11.162Z,11.27
2022-08-25T04:10:39.196Z,10.93
2022-08-25T04:13:07.315Z,10.80
2022-08-25T04:15:36.462Z,10.70
2022-08-25T04:18:05.969Z,11.43
2022-08-25T04:20:34.022Z,11.30
2022-08-25T04:23:01.940Z,11.37
2022-08-25T04:25:30.028Z,10.90
2022-08-25T04:27:57.935Z,11.00
2022-08-25T04:30:25.961Z,10.90
2022-08-25T04:32:53.842Z,12.07
2022-08-25T04:35:23.630Z,13.07
2022-08-25T04:37:51.553Z,12.10
2022-08-25T04:40:20.484Z,10.33
2022-08-25T04:42:57.347Z,13.33
2022-08-25T04:45:25.681Z,11.20
2022-08-25T04:47:56.340Z,10.73
2022-08-25T04:50:25.584Z,10.00
2022-08-25T04:52:53.758Z,11.50
2022-08-25T04:55:22.185Z,10.80
2022-08-25T04:57:50.138Z,10.93
2022-08-25T05:00:19.281Z,10.93
2022-08-25T05:02:47.155Z,10.10
2022-08-25T05:05:15.081Z,10.43
2022-08-25T05:07:44.401Z,10.20
2022-08-25T05:10:12.322Z,9.90
2022-08-25T05:12:40.324Z,9.75
2022-08-25T05:15:23.733Z,9.90
2022-08-25T05:17:55.798Z,9.45
2022-08-25T05:20:24.670Z,11.20
2022-08-25T05:22:54.259Z,10.05
2022-08-25T05:25:27.092Z,10.60
2022-08-25T05:27:54.948Z,10.40
2022-08-25T05:30:22.829Z,10.48
2022-08-25T05:32:51.168Z,10.13
2022-08-25T05:35:20.238Z,11.75
2022-08-25T05:37:48.275Z,10.43
2022-08-25T05:40:17.670Z,10.32
2022-08-25T05:42:45.849Z,10.57
2022-08-25T05:45:15.862Z,11.05
2022-08-25T05:47:48.773Z,10.63
2022-08-25T05:50:17.823Z,10.82
2022-08-25T05:52:46.682Z,10.68
2022-08-25T05:55:15.531Z,10.50
2022-08-25T05:57:45.202Z,9.48
2022-08-25T06:00:14.509Z,10.32
2022-08-25T06:02:43.560Z,11.00
2022-08-25T06:05:13.780Z,10.10
2022-08-25T06:07:42.018Z,10.95
2022-08-25T06:10:12.054Z,10.77
2022-08-25T06:12:44.374Z,9.77
2022-08-25T06:15:16.536Z,9.52
2022-08-25T06:17:44.470Z,10.48
2022-08-25T06:20:14.822Z,10.35
2022-08-25T06:22:43.120Z,10.00
2022-08-25T06:25:13.480Z,9.50
2022-08-25T06:27:41.910Z,9.95
2022-08-25T06:30:14.925Z,9.65
2022-08-25T06:32:47.057Z,9.43
2022-08-25T06:35:18.927Z,9.35
2022-08-25T06:37:47.369Z,10.07
2022-08-25T06:40:17.014Z,9.98
2022-08-25T06:42:49.482Z,9.25
2022-08-25T06:45:17.932Z,9.57
2022-08-25T06:47:47.227Z,10.15
2022-08-25T06:50:15.606Z,9.40
2022-08-25T06:52:43.474Z,9.52
2022-08-25T06:55:12.219Z,10.68
2022-08-25T06:57:42.756Z,8.65
2022-08-25T07:00:13.204Z,9.55
2022-08-25T07:02:42.445Z,9.07
2022-08-25T07:05:16.965Z,9.10
2022-08-25T07:07:54.728Z,8.45
2022-08-25T07:10:22.719Z,9.23
2022-08-25T07:12:51.725Z,9.10
2022-08-25T07:15:21.284Z,9.52
2022-08-25T07:17:50.337Z,9.68
2022-08-25T07:20:20.297Z,8.98
2022-08-25T07:22:49.003Z,9.45
2022-08-25T07:25:23.013Z,12.48
2022-08-25T07:27:55.882Z,8.60
2022-08-25T07:30:26.681Z,8.88
2022-08-25T07:32:55.086Z,9.00
2022-08-25T07:35:26.352Z,8.77
2022-08-25T07:37:57.227Z,9.00
2022-08-25T07:40:28.122Z,8.73
2022-08-25T07:42:57.855Z,9.35
2022-08-25T07:45:30.740Z,9.07
2022-08-25T07:47:59.569Z,7.40
2022-08-25T07:50:31.297Z,8.35
2022-08-25T07:53:00.198Z,8.05
2022-08-25T07:55:30.529Z,7.80
2022-08-25T07:57:59.841Z,8.27
2022-08-25T08:00:32.097Z,8.07
2022-08-25T08:03:00.958Z,8.25
2022-08-25T08:05:33.729Z,8.02
2022-08-25T08:08:02.613Z,8.60
2022-08-25T08:11:03.298Z,7.57
2022-08-25T08:13:26.294Z,7.72
2022-08-25T08:15:54.365Z,8.23
2022-08-25T08:18:22.300Z,7.35
2022-08-25T08:20:51.548Z,8.25
2022-08-25T08:23:19.473Z,7.60
2022-08-25T08:25:48.199Z,7.00
2022-08-25T08:28:16.065Z,7.70
2022-08-25T08:30:53.430Z,7.07
2022-08-25T08:33:23.792Z,6.97
2022-08-25T08:35:59.370Z,7.13
2022-08-25T08:38:27.530Z,7.18
2022-08-25T08:41:23.564Z,7.68
2022-08-25T08:44:02.247Z,7.00
2022-08-25T08:46:40.837Z,6.80
2022-08-25T08:49:37.507Z,7.13
2022-08-25T08:52:09.374Z,7.18
2022-08-25T08:54:41.391Z,7.18
2022-08-25T08:57:16.626Z,6.85
2022-08-25T08:59:50.250Z,7.38
2022-08-25T09:02:38.821Z,6.65
2022-08-25T09:05:19.838Z,6.95
2022-08-25T09:07:54.856Z,6.90
2022-08-25T09:10:24.779Z,6.18
2022-08-25T09:13:01.709Z,5.90
2022-08-25T09:15:58.630Z,6.18
2022-08-25T09:18:41.003Z,6.07
2022-08-25T09:21:29.448Z,6.88
2022-08-25T09:24:11.918Z,6.43
2022-08-25T09:26:46.081Z,6.35
2022-08-25T09:29:17.186Z,6.32
2022-08-25T09:31:46.197Z,5.82
2022-08-25T09:34:19.180Z,6.57
2022-08-25T09:36:48.705Z,6.03
2022-08-25T09:39:19.743Z,6.68
2022-08-25T09:41:51.529Z,6.72
2022-08-25T09:44:23.047Z,6.78
2022-08-25T09:47:02.157Z,6.28
2022-08-25T09:49:37.566Z,7.20
2022-08-25T09:52:37.773Z,6.15
2022-08-25T09:55:28.552Z,6.63
2022-08-25T09:57:58.403Z,8.00
2022-08-25T10:00:30.761Z,7.63
2022-08-25T10:03:14.321Z,7.60
2022-08-25T10:05:59.906Z,7.25
2022-08-25T10:08:33.115Z,7.07
2022-08-25T10:11:08.648Z,7.22
2022-08-25T10:13:41.939Z,6.57
2022-08-25T10:16:24.284Z,7.18
2022-08-25T10:19:10.022Z,6.60
2022-08-25T10:21:39.780Z,7.03
2022-08-25T10:24:09.437Z,6.93
2022-08-25T10:26:55.941Z,6.70
2022-08-25T10:29:37.689Z,7.32
2022-08-25T10:32:15.076Z,7.68
2022-08-25T10:34:51.904Z,7.22
2022-08-25T10:37:35.674Z,8.18
2022-08-25T10:40:13.586Z,8.25
2022-08-25T10:42:54.873Z,7.40
2022-08-25T10:45:42.996Z,7.25
2022-08-25T10:48:40.462Z,7.43
2022-08-25T10:51:28.007Z,6.90
2022-08-25T10:54:02.337Z,6.90
2022-08-25T10:56:35.640Z,7.38
2022-08-25T10:59:35.605Z,7.45
2022-08-25T11:02:53.271Z,7.85
2022-08-25T11:05:28.000Z,7.20
2022-08-25T11:08:08.165Z,7.32
2022-08-25T11:10:43.059Z,6.90
2022-08-25T11:13:18.814Z,7.22
2022-08-25T11:16:15.951Z,7.00
2022-08-25T11:18:51.236Z,7.55
2022-08-25T11:21:24.977Z,7.38
2022-08-25T11:23:59.554Z,7.50
2022-08-25T11:26:36.828Z,6.18
2022-08-25T11:29:13.435Z,8.02
2022-08-25T11:31:53.263Z,7.22
2022-08-25T11:34:23.032Z,7.72
2022-08-25T11:36:54.614Z,8.38
2022-08-25T11:39:34.617Z,6.60
2022-08-25T11:42:14.614Z,7.40
2022-08-25T11:44:55.576Z,8.07
2022-08-25T11:47:43.521Z,6.75
2022-08-25T11:50:30.297Z,6.95
2022-08-25T11:53:02.027Z,7.10
2022-08-25T11:55:48.260Z,5.75
2022-08-25T11:58:31.360Z,6.68
2022-08-25T12:01:00.800Z,5.95
2022-08-25T12:03:56.518Z,6.85
2022-08-25T12:06:33.450Z,7.20
2022-08-25T12:09:21.301Z,7.57
2022-08-25T12:11:56.525Z,4.88
2022-08-25T12:14:48.613Z,6.32
2022-08-25T12:17:26.925Z,6.50
2022-08-25T12:20:00.228Z,6.30
2022-08-25T12:22:56.837Z,6.55
2022-08-25T12:25:46.858Z,6.10
2022-08-25T12:28:39.089Z,5.30
2022-08-25T12:31:17.430Z,6.13
2022-08-25T12:34:01.948Z,6.50
2022-08-25T12:36:33.343Z,6.05
2022-08-25T12:39:24.630Z,6.32
2022-08-25T12:42:11.934Z,6.75
2022-08-25T12:44:44.230Z,6.30
2022-08-25T12:47:34.755Z,5.80
2022-08-25T12:50:43.778Z,5.80
2022-08-25T12:53:21.392Z,5.03
2022-08-25T12:55:59.030Z,6.05
2022-08-25T12:59:00.862Z,5.13
2022-08-25T13:02:03.165Z,5.45
2022-08-25T13:05:36.985Z,6.07
2022-08-25T13:08:56.197Z,7.45
2022-08-25T13:11:42.140Z,7.07
2022-08-25T13:14:37.917Z,7.65
2022-08-25T13:17:09.952Z,6.80
2022-08-25T13:19:39.492Z,7.88
2022-08-25T13:22:16.317Z,6.80
2022-08-25T13:24:50.795Z,7.28
2022-08-25T13:27:28.590Z,6.95
2022-08-25T13:30:03.868Z,7.50
2022-08-25T13:32:35.637Z,7.72
2022-08-25T13:35:17.696Z,7.10
2022-08-25T13:37:47.003Z,6.20
2022-08-25T13:40:17.847Z,6.55
2022-08-25T13:42:55.463Z,6.15
2022-08-25T13:45:26.303Z,6.63
2022-08-25T13:47:56.174Z,6.00
2022-08-25T13:50:34.146Z,5.65
2022-08-25T13:53:04.993Z,6.78
2022-08-25T13:55:38.357Z,7.35
2022-08-25T13:58:24.657Z,6.25
2022-08-25T14:01:22.343Z,6.20
2022-08-25T14:04:01.232Z,6.45
2022-08-25T14:06:29.840Z,5.47
2022-08-25T14:09:16.129Z,6.53
2022-08-25T14:11:47.978Z,6.43
2022-08-25T14:14:35.237Z,5.80
2022-08-25T14:17:21.558Z,6.47
2022-08-25T14:19:55.703Z,5.43
2022-08-25T14:22:23.971Z,6.45
2022-08-25T14:24:55.022Z,6.70
2022-08-25T14:27:23.505Z,5.78
2022-08-25T14:29:53.104Z,5.95
2022-08-25T14:32:22.864Z,6.03
2022-08-25T14:34:51.406Z,6.00
2022-08-25T14:37:25.591Z,5.82
2022-08-25T14:39:54.774Z,5.50
2022-08-25T14:42:25.367Z,5.20
2022-08-25T14:44:56.184Z,5.60
2022-08-25T14:47:24.795Z,6.22
2022-08-25T14:49:52.931Z,5.47
2022-08-25T14:52:25.604Z,5.70
2022-08-25T14:54:53.833Z,5.00
2022-08-25T14:57:22.133Z,5.20
2022-08-25T14:59:52.396Z,5.47
2022-08-25T15:02:30.512Z,5.13
2022-08-25T15:05:05.965Z,5.15
2022-08-25T15:07:52.080Z,5.28
2022-08-25T15:10:21.779Z,4.63
2022-08-25T15:12:53.821Z,4.35
2022-08-25T15:15:22.439Z,4.90
2022-08-25T15:17:52.171Z,5.40
2022-08-25T15:20:20.493Z,5.38
2022-08-25T15:22:48.776Z,5.10
2022-08-25T15:25:18.160Z,5.38
2022-08-25T15:27:46.130Z,5.10
2022-08-25T15:30:15.007Z,5.70
2022-08-25T15:32:43.221Z,5.10
2022-08-25T15:35:15.346Z,5.70
2022-08-25T15:37:43.698Z,5.00
2022-08-25T15:40:12.783Z,4.90
2022-08-25T15:42:42.840Z,5.93
2022-08-25T15:45:14.443Z,5.50
2022-08-25T15:47:42.361Z,5.47
2022-08-25T15:50:14.749Z,6.32
2022-08-25T15:52:47.527Z,5.68
2022-08-25T15:55:17.810Z,6.28
2022-08-25T15:57:47.983Z,6.43
2022-08-25T16:00:19.091Z,6.65
2022-08-25T16:02:47.193Z,6.63
2022-08-25T16:05:16.817Z,5.93
2022-08-25T16:07:51.848Z,5.25
2022-08-25T16:10:20.617Z,6.20
2022-08-25T16:12:49.797Z,5.43
2022-08-25T16:15:17.950Z,6.30
2022-08-25T16:17:51.789Z,6.35
2022-08-25T16:20:24.343Z,6.15
2022-08-25T16:22:52.497Z,5.88
2022-08-25T16:25:20.923Z,5.72
2022-08-25T16:27:49.515Z,5.68
2022-08-25T16:30:17.930Z,6.55
2022-08-25T16:32:46.365Z,5.13
2022-08-25T16:35:15.158Z,6.30
2022-08-25T16:37:44.426Z,5.78
2022-08-25T16:40:14.897Z,6.30
2022-08-25T16:42:46.155Z,6.00
2022-08-25T16:45:15.444Z,5.45
2022-08-25T16:47:43.658Z,6.05
2022-08-25T16:50:12.165Z,5.88
2022-08-25T16:52:59.276Z,5.38
2022-08-25T16:55:39.398Z,6.53
2022-08-25T17:01:37.164Z,5.55
2022-08-25T17:07:39.636Z,5.53
2022-08-25T17:10:12.807Z,6.50
2022-08-25T17:13:18.102Z,6.72
2022-08-25T17:15:52.392Z,6.90
2022-08-25T17:18:31.022Z,6.43
2022-08-25T17:21:02.218Z,5.82
2022-08-25T17:23:35.469Z,5.95
2022-08-25T17:26:11.896Z,5.80
2022-08-25T17:28:49.747Z,6.53
2022-08-25T17:31:22.369Z,5.93
2022-08-25T17:33:59.708Z,6.47
2022-08-25T17:36:27.937Z,5.70
2022-08-25T17:38:56.764Z,5.70
2022-08-25T17:41:26.050Z,6.43
2022-08-25T17:43:55.700Z,6.43
2022-08-25T17:46:26.768Z,7.00
2022-08-25T17:48:59.209Z,5.60
2022-08-25T17:51:31.913Z,7.45
2022-08-25T17:54:00.647Z,7.10
2022-08-25T17:56:33.790Z,6.25
2022-08-25T17:59:09.289Z,6.32
2022-08-25T18:01:40.250Z,6.50
2022-08-25T18:04:15.632Z,8.05
2022-08-25T18:06:46.795Z,6.25
2022-08-25T18:09:15.118Z,6.22
2022-08-25T18:11:43.518Z,7.03
2022-08-25T18:14:16.527Z,7.82
2022-08-25T18:16:44.789Z,7.03
2022-08-25T18:19:14.386Z,7.05
2022-08-25T18:21:43.475Z,8.02
2022-08-25T18:24:13.290Z,7.55
2022-08-25T18:26:41.888Z,8.07
2022-08-25T18:29:12.952Z,7.47
2022-08-25T18:31:43.307Z,7.40
2022-08-25T18:34:13.517Z,8.15
2022-08-25T18:36:41.947Z,7.35
2022-08-25T18:39:34.050Z,6.90
2022-08-25T18:42:03.089Z,6.55
2022-08-25T18:44:32.687Z,6.70
2022-08-25T18:47:07.662Z,6.05
2022-08-25T18:49:37.173Z,6.78
2022-08-25T18:52:07.433Z,7.45
2022-08-25T18:54:36.320Z,7.72
2022-08-25T18:57:08.762Z,6.80
2022-08-25T18:59:37.398Z,6.90
2022-08-25T19:02:10.765Z,6.53
2022-08-25T19:04:42.437Z,7.13
2022-08-25T19:07:12.206Z,6.05
2022-08-25T19:09:40.619Z,5.22
2022-08-25T19:12:11.605Z,6.75
2022-08-25T19:14:57.540Z,5.65
2022-08-25T19:17:37.400Z,6.82
2022-08-25T19:20:11.294Z,7.90
2022-08-25T19:22:47.043Z,6.95
2022-08-25T19:25:16.004Z,6.88
2022-08-25T19:27:45.211Z,7.45
2022-08-25T19:30:15.516Z,8.00
2022-08-25T19:32:47.072Z,6.85
2022-08-25T19:35:31.980Z,7.03
2022-08-25T19:38:07.092Z,6.80
2022-08-25T19:41:09.386Z,7.10
2022-08-25T19:43:55.755Z,7.15
2022-08-25T19:46:40.843Z,7.20
2022-08-25T19:49:16.022Z,7.43
2022-08-25T19:51:54.204Z,7.68
2022-08-25T19:54:27.748Z,6.60
2022-08-25T19:56:57.444Z,7.88
2022-08-25T19:59:42.298Z,6.97
2022-08-25T20:02:15.914Z,7.07
2022-08-25T20:04:50.453Z,6.38
2022-08-25T20:07:20.028Z,6.70
2022-08-25T20:09:48.703Z,7.72
2022-08-25T20:12:18.155Z,7.75
2022-08-25T20:14:47.192Z,8.02
2022-08-25T20:17:23.499Z,7.05
2022-08-25T20:19:55.729Z,7.10
2022-08-25T20:22:26.588Z,6.70
2022-08-25T20:24:58.102Z,7.97
2022-08-25T20:27:31.616Z,7.70
2022-08-25T20:30:02.803Z,7.53
2022-08-25T20:32:32.425Z,8.40
2022-08-25T20:35:02.971Z,7.73
2022-08-25T20:37:31.833Z,7.33
2022-08-25T20:40:02.532Z,6.80
2022-08-25T20:42:30.799Z,7.30
2022-08-25T20:44:59.969Z,7.33
2022-08-25T20:47:30.426Z,8.10
2022-08-25T20:50:03.279Z,8.30
2022-08-25T20:52:37.374Z,8.00
2022-08-25T20:55:11.683Z,8.23
2022-08-25T20:57:41.430Z,7.00
2022-08-25T21:00:11.069Z,6.80
2022-08-25T21:02:39.159Z,7.13
2022-08-25T21:05:08.827Z,8.10
2022-08-25T21:07:38.549Z,7.37
2022-08-25T21:10:10.659Z,7.90
2022-08-25T21:12:42.812Z,7.33
2022-08-25T21:15:12.587Z,8.40
2022-08-25T21:17:41.641Z,8.20
2022-08-25T21:20:11.838Z,8.37
2022-08-25T21:22:41.134Z,8.60
2022-08-25T21:25:11.645Z,8.60
2022-08-25T21:27:40.815Z,8.60
2022-08-25T21:30:13.028Z,7.87
2022-08-25T21:32:41.234Z,8.60
2022-08-25T21:35:22.550Z,8.50
2022-08-25T21:37:53.474Z,8.27
2022-08-25T21:40:22.018Z,8.27
2022-08-25T21:42:50.026Z,8.97
2022-08-25T21:45:20.901Z,9.50
2022-08-25T21:47:50.086Z,8.53
2022-08-25T21:50:20.111Z,9.17
2022-08-25T21:52:48.092Z,9.33
2022-08-25T21:55:24.642Z,9.90
2022-08-25T21:57:54.703Z,8.33
2022-08-25T22:00:23.388Z,8.20
2022-08-25T22:02:51.677Z,8.03
2022-08-25T22:05:19.816Z,8.03
2022-08-25T22:07:48.376Z,9.10
2022-08-25T22:10:17.841Z,9.77
2022-08-25T22:12:48.887Z,8.57
2022-08-25T22:15:17.974Z,8.80
2022-08-25T22:17:48.219Z,8.50
2022-08-25T22:20:17.661Z,8.13
2022-08-25T22:22:45.662Z,9.30
2022-08-25T22:25:14.159Z,9.77
2022-08-25T22:27:42.594Z,9.60
2022-08-25T22:30:13.678Z,9.10
2022-08-25T22:32:42.454Z,10.30
2022-08-25T22:35:13.426Z,9.27
2022-08-25T22:37:41.360Z,10.00
2022-08-25T22:40:10.552Z,11.40
2022-08-25T22:42:38.529Z,8.77
2022-08-25T22:45:09.733Z,10.60
2022-08-25T22:47:39.860Z,9.17
2022-08-25T22:50:10.220Z,9.63
2022-08-25T22:52:38.283Z,9.47
2022-08-25T22:55:12.040Z,9.87
2022-08-25T22:57:41.378Z,11.20
2022-08-25T23:00:13.428Z,11.23
2022-08-25T23:02:42.983Z,9.97
2022-08-25T23:05:12.695Z,9.53
2022-08-25T23:07:41.953Z,10.03
2022-08-25T23:10:12.249Z,9.37
2022-08-25T23:12:43.791Z,9.87
2022-08-25T23:15:14.140Z,12.07
2022-08-25T23:17:43.450Z,9.87
2022-08-25T23:20:25.953Z,9.37
2022-08-25T23:22:53.928Z,9.23
2022-08-25T23:25:21.995Z,10.50
2022-08-25T23:27:49.984Z,9.53
2022-08-25T23:30:19.865Z,9.50
2022-08-25T23:32:50.736Z,10.03
2022-08-25T23:35:19.424Z,9.80
2022-08-25T23:37:48.079Z,10.17
2022-08-25T23:40:19.509Z,10.13
2022-08-25T23:42:48.209Z,10.30
2022-08-25T23:45:16.805Z,9.37
2022-08-25T23:47:44.694Z,11.10
2022-08-25T23:50:14.130Z,10.60
2022-08-25T23:52:42.160Z,12.00
2022-08-25T23:55:10.488Z,10.10
2022-08-25T23:57:38.411Z,10.80
